WetterOnline ( https://www.wetteronline.de )

Wetter aktuell Potsdam

Aktuelles Wetter: Potsdam (100m)

6-stündlich | Neueste Meldungen
Ortszeit Temperatur Wetter
Mi, 24.04. 2:00 4.9° C bedeckt
Di, 23.04. 20:00 7.2° C bedeckt
Di, 23.04. 14:00 10.0° C wolkig
Di, 23.04. 8:00 1.4° C bedeckt
Di, 23.04. 2:00 0.7° C wolkenlos
Mo, 22.04. 20:00 4.2° C bedeckt
Mo, 22.04. 14:00 5.5° C bewölkt
Mo, 22.04. 8:00 0.7° C wolkig
Ortszeit Temperatur Wetter
Mi, 24.04. 3:30 4.6° C bedeckt
Mi, 24.04. 3:20 4.6° C bedeckt
Mi, 24.04. 3:10 4.8° C bewölkt
Mi, 24.04. 3:00 5.0° C bedeckt
Mi, 24.04. 2:50 5.0° C bedeckt
Mi, 24.04. 2:40 5.1° C bewölkt
Mi, 24.04. 2:30 4.8° C bedeckt
Mi, 24.04. 2:00 4.9° C bedeckt
Mi, 24.04. 1:30 4.9° C bedeckt
Mi, 24.04. 1:00 4.7° C bedeckt
Mi, 24.04. 0:30 4.7° C bedeckt
Ortszeit Relative Feuchte Sichtweite
Mi, 24.04. 2:00 66% >70 km
Di, 23.04. 20:00 54% 65 km
Di, 23.04. 14:00 35% >70 km
Di, 23.04. 8:00 88% 24 km
Di, 23.04. 2:00 93% 26 km
Mo, 22.04. 20:00 78% 60 km
Mo, 22.04. 14:00 61% 60 km
Mo, 22.04. 8:00 76% 50 km
Ortszeit Relative Feuchte Sichtweite
Mi, 24.04. 3:30 67% 65 km
Mi, 24.04. 3:20 67% -
Mi, 24.04. 3:10 66% -
Mi, 24.04. 3:00 64% 65 km
Mi, 24.04. 2:50 64% -
Mi, 24.04. 2:40 63% -
Mi, 24.04. 2:30 68% 55 km
Mi, 24.04. 2:00 66% >70 km
Mi, 24.04. 1:30 67% 60 km
Mi, 24.04. 1:00 67% 55 km
Mi, 24.04. 0:30 68% 60 km
Ortszeit Niederschlagsmenge Niederschlagsart
Mi, 24.04. 2:00 0.0 l/m2 in 6 Std. -
Di, 23.04. 20:00 0.0 l/m2 in 12 Std. -
Di, 23.04. 14:00 0.0 l/m2 in 6 Std. -
Di, 23.04. 8:00 0.0 l/m2 in 12 Std. -
Di, 23.04. 2:00 0.0 l/m2 in 6 Std. -
Mo, 22.04. 20:00 0.1 l/m2 in 3 Std. Regen
Mo, 22.04. 14:00 0.1 l/m2 in 6 Std. Regen
Mo, 22.04. 8:00 0.0 l/m2 in 12 Std. -
Ortszeit Niederschlagsmenge Niederschlagsart
Mi, 24.04. 3:30 0.0 l/m2 in 30 Min -
Mi, 24.04. 3:20 keine Meldung -
Mi, 24.04. 3:10 keine Meldung -
Mi, 24.04. 3:00 0.0 l/m2 in 1 Std. -
Mi, 24.04. 2:50 keine Meldung -
Mi, 24.04. 2:40 keine Meldung -
Mi, 24.04. 2:30 0.0 l/m2 in 30 Min -
Mi, 24.04. 2:00 0.0 l/m2 in 1 Std. -
Mi, 24.04. 1:30 0.0 l/m2 in 30 Min -
Mi, 24.04. 1:00 0.0 l/m2 in 1 Std. -
Mi, 24.04. 0:30 0.0 l/m2 in 30 Min -
Ortszeit Stärke Spitze Richtung
km/h Bft. km/h Grad Sektor
Mi, 24.04. 2:00 14 3 25 180° S
Di, 23.04. 20:00 6 1 30 220° SW
Di, 23.04. 14:00 11 2 28 260° W
Di, 23.04. 8:00 9 2 20 280° W
Di, 23.04. 2:00 11 2 14 230° SW
Mo, 22.04. 20:00 7 2 25 180° S
Mo, 22.04. 14:00 11 2 32 320° NW
Mo, 22.04. 8:00 7 2 25 20° N
Ortszeit Stärke Spitze Richtung
km/h Bft. km/h Grad Sektor
Mi, 24.04. 3:30 14 3 22 170° S
Mi, 24.04. 3:20 14 3 - 170° S
Mi, 24.04. 3:10 13 3 - 170° S
Mi, 24.04. 3:00 14 3 25 170° S
Mi, 24.04. 2:50 14 3 - 170° S
Mi, 24.04. 2:40 14 3 - 170° S
Mi, 24.04. 2:30 13 3 20 170° S
Mi, 24.04. 2:00 14 3 25 180° S
Mi, 24.04. 1:30 17 3 24 170° S
Mi, 24.04. 1:00 13 3 19 170° S
Mi, 24.04. 0:30 13 3 19 190° S
Ortszeit Untergrenze Bedeckung Gattung
total tief tief mittel hoch
Mi, 24.04. 2:00 1500 m 8/8 8/8 - - -
Di, 23.04. 20:00 1440 m 8/8 8/8 - - -
Di, 23.04. 14:00 1500 m 6/8 6/8 - - -
Di, 23.04. 8:00 120 m 8/8 8/8 - - -
Di, 23.04. 2:00 - 0/8 0/8 - - -
Mo, 22.04. 20:00 1380 m 8/8 8/8 - - -
Mo, 22.04. 14:00 750 m 7/8 7/8 - - -
Mo, 22.04. 8:00 1230 m 8/8 8/8 - - -
Ortszeit Bedeckungsgrad in Achtel und Wolkenuntergrenze
Mi, 24.04. 3:30 8(2100m)
Mi, 24.04. 3:20 8(2100m)
Mi, 24.04. 3:10 7
Mi, 24.04. 3:00 3(1500m) 8(2100m)
Mi, 24.04. 2:50 3(1500m) 8(2100m)
Mi, 24.04. 2:40 7
Mi, 24.04. 2:30 1(1410m) 3(1500m) 8(2100m)
Mi, 24.04. 2:00 4(1500m) 8(2100m)
Mi, 24.04. 1:30 1(1470m) 7(1800m) 8(2100m)
Mi, 24.04. 1:00 8(1800m) 8(3600m)
Mi, 24.04. 0:30 2(1800m) 8(2100m) 8(3300m)
Ortszeit Luftdruck NN (hPa) Tendenz (hPa in 3 Std.)
Mi, 24.04. 2:00 1012 - 1,9
Di, 23.04. 20:00 1015 - 1,6
Di, 23.04. 14:00 1018 - 2,2
Di, 23.04. 8:00 1022 - 0,1
Di, 23.04. 2:00 1023 - 0,7
Mo, 22.04. 20:00 1023 - 0,1
Mo, 22.04. 14:00 1024 - 0,6
Mo, 22.04. 8:00 1025 0,0
Ortszeit Luftdruck NN (hPa) Tendenz (hPa in 3 Std.)
Mi, 24.04. 3:30 1010 - 2,4
Mi, 24.04. 3:20 1010 keine Meldung
Mi, 24.04. 3:10 1010 keine Meldung
Mi, 24.04. 3:00 1011 - 2,1
Mi, 24.04. 2:50 1011 keine Meldung
Mi, 24.04. 2:40 1011 keine Meldung
Mi, 24.04. 2:30 1011 - 2,0
Mi, 24.04. 2:00 1012 - 1,9
Mi, 24.04. 1:30 1012 - 1,8
Mi, 24.04. 1:00 1012 - 1,7
Mi, 24.04. 0:30 1013 - 1,5
Ortszeit Schneehöhe (cm)
Mi, 24.04. 2:00 0
Di, 23.04. 20:00 0
Di, 23.04. 14:00 0
Di, 23.04. 8:00 0
Di, 23.04. 2:00 0
Mo, 22.04. 20:00 0
Mo, 22.04. 14:00 0
Mo, 22.04. 8:00 0
Ortszeit Schneehöhe (cm)
Mi, 24.04. 3:30 0
Mi, 24.04. 3:20 0
Mi, 24.04. 3:10 -
Mi, 24.04. 3:00 0
Mi, 24.04. 2:50 0
Mi, 24.04. 2:40 -
Mi, 24.04. 2:30 0
Mi, 24.04. 2:00 0
Mi, 24.04. 1:30 0
Mi, 24.04. 1:00 0
Mi, 24.04. 0:30 0
Link zu dieser Seite / Seite empfehlen

Das Wetter in ...